»·PEaware :: N653SL KSFO-KLAS

N653SL :: KSFO-KLAS

FLIGHT INFORMATION

Flight Status: Arrived
Operator: Privately registered:
United States
More flights under this callsign
Pilot: David I. (28153)
Aircraft: CESSNA 550 CITATION 2/S2/BRAVO
(C550)
More flights by this aircraft type
Origin: KSFO San Francisco Intl
United States
Destination: KLAS McCarran Intl
United States
More flights between these airports :: More routes between these airports
Route: WESLA4 NTELL Q162 ESSAA BTY SUNST4
File this flight plan on PilotEdge
Remarks:
Altitude:
(Current/Filed)
27,000ft
Speed:
(Current/Filed)
350kts
Departed: 02-Oct-20 09:32 AM
Arrived: 02-Oct-20 10:50 AM
Distance/Time
Traveled:
358nm/1:18
Distance/Time
To Go:
Arrived

Flight Plot

Page will automatically refresh every two minutes.

Flight plan parsing failed; only flown route is shown


Map Options




Map Legend


Flown Route
Filed Route
Departure Airport
Arrival Airport
Navaid (VOR, NDB)
Fix

Horizontal Profiles

Position Reports

Time Latitude Longitude Heading Altitude Ground
Speed
02-Oct-20 09:11 37.627701 -122.384304 300 14ft 0kts
02-Oct-20 09:12 37.627701 -122.384304 300 14ft 0kts
02-Oct-20 09:13 37.627701 -122.384304 300 14ft 0kts
02-Oct-20 09:14 37.627701 -122.384304 300 14ft 0kts
02-Oct-20 09:14 37.627701 -122.384304 300 14ft 0kts
02-Oct-20 09:16 37.627701 -122.384304 300 14ft 0kts
02-Oct-20 09:17 37.627701 -122.384304 300 14ft 0kts
02-Oct-20 09:18 37.627701 -122.384304 300 14ft 0kts
02-Oct-20 09:18 37.627701 -122.384304 300 14ft 0kts
02-Oct-20 09:19 37.627701 -122.384304 300 14ft 0kts
02-Oct-20 09:21 37.627701 -122.384304 300 14ft 0kts
02-Oct-20 09:21 37.627748 -122.384700 255 14ft 4kts
02-Oct-20 09:22 37.627613 -122.384951 218 14ft 1kts
02-Oct-20 09:23 37.626248 -122.383761 118 14ft 14kts
02-Oct-20 09:24 37.623999 -122.378396 118 14ft 18kts
02-Oct-20 09:25 37.622340 -122.374435 117 14ft 2kts
02-Oct-20 09:26 37.621378 -122.372142 117 14ft 1kts
02-Oct-20 09:27 37.619642 -122.368013 118 14ft 21kts
02-Oct-20 09:28 37.616568 -122.360686 118 14ft 25kts
02-Oct-20 09:29 37.614391 -122.356785 203 14ft 0kts
02-Oct-20 09:30 37.613952 -122.358076 285 14ft 15kts
02-Oct-20 09:31 37.627145 -122.388812 301 1230ft 153kts
02-Oct-20 09:32 37.653166 -122.451619 294 2028ft 230kts
02-Oct-20 09:33 37.659539 -122.524030 227 2791ft 214kts
02-Oct-20 09:34 37.604649 -122.521008 159 4330ft 225kts
02-Oct-20 09:35 37.541199 -122.494433 163 6969ft 265kts
02-Oct-20 09:36 37.473134 -122.448962 123 8639ft 294kts
02-Oct-20 09:37 37.428582 -122.368441 126 11148ft 285kts
02-Oct-20 09:38 37.398813 -122.275535 105 12949ft 293kts
02-Oct-20 09:39 37.379138 -122.175428 105 14756ft 300kts
02-Oct-20 09:40 37.358303 -122.070789 105 16569ft 312kts
02-Oct-20 09:41 37.337043 -121.964533 105 18367ft 315kts
02-Oct-20 09:42 37.315486 -121.857406 105 20177ft 314kts
02-Oct-20 09:43 37.294094 -121.751650 105 21974ft 315kts
02-Oct-20 09:44 37.271950 -121.642852 105 23775ft 325kts
02-Oct-20 09:45 37.249547 -121.533164 105 25572ft 324kts
02-Oct-20 09:46 37.226898 -121.422983 105 26876ft 333kts
02-Oct-20 09:47 37.202632 -121.305700 105 27077ft 363kts
02-Oct-20 09:48 37.176522 -121.179991 105 27077ft 379kts
02-Oct-20 09:49 37.149496 -121.050573 105 27075ft 385kts
02-Oct-20 09:50 37.122130 -120.920285 105 27071ft 388kts
02-Oct-20 09:51 37.094389 -120.789125 105 27068ft 391kts
02-Oct-20 09:52 37.066274 -120.656951 105 27063ft 393kts
02-Oct-20 09:53 37.037925 -120.524464 105 27063ft 393kts
02-Oct-20 09:54 37.009337 -120.391656 105 27066ft 394kts
02-Oct-20 09:55 36.980747 -120.259642 106 27070ft 394kts
02-Oct-20 09:56 36.951817 -120.126838 106 27072ft 394kts
02-Oct-20 09:57 36.965194 -119.993050 73 27072ft 397kts
02-Oct-20 09:58 36.998379 -119.860693 73 27072ft 397kts
02-Oct-20 09:59 37.031422 -119.728304 73 27072ft 397kts
02-Oct-20 10:00 37.064148 -119.596034 73 27072ft 397kts
02-Oct-20 10:01 37.096669 -119.463840 73 27073ft 396kts
02-Oct-20 10:02 37.129123 -119.331199 73 27082ft 396kts
02-Oct-20 10:03 37.161220 -119.199307 73 27252ft 392kts
02-Oct-20 10:04 37.192808 -119.068813 73 27445ft 391kts
02-Oct-20 10:05 37.224324 -118.937820 73 27467ft 391kts
02-Oct-20 10:06 37.255763 -118.806549 73 27461ft 391kts
02-Oct-20 10:07 37.280708 -118.673258 83 27398ft 392kts
02-Oct-20 10:08 37.293515 -118.536355 83 27295ft 393kts
02-Oct-20 10:09 37.305877 -118.399855 83 27292ft 392kts
02-Oct-20 10:10 37.317907 -118.265879 84 27292ft 391kts
02-Oct-20 10:11 37.329961 -118.129981 84 27292ft 391kts
02-Oct-20 10:12 37.341888 -117.993745 84 27292ft 391kts
02-Oct-20 10:13 37.347233 -117.857358 94 27292ft 390kts
02-Oct-20 10:14 37.335639 -117.721457 96 27292ft 390kts
02-Oct-20 10:15 37.323281 -117.585825 96 27293ft 390kts
02-Oct-20 10:16 37.310927 -117.450382 96 27332ft 389kts
02-Oct-20 10:17 37.294086 -117.316125 111 27366ft 388kts
02-Oct-20 10:18 37.234170 -117.203639 127 27365ft 389kts
02-Oct-20 10:19 37.168169 -117.096371 127 27365ft 389kts
02-Oct-20 10:20 37.102256 -116.988851 127 27365ft 389kts
02-Oct-20 10:21 37.021374 -116.900265 150 27367ft 391kts
02-Oct-20 10:22 36.925613 -116.833824 150 27320ft 394kts
02-Oct-20 10:23 36.829341 -116.767354 149 27218ft 396kts
02-Oct-20 10:24 36.749263 -116.674623 130 27191ft 394kts
02-Oct-20 10:25 36.677150 -116.571527 130 27191ft 393kts
02-Oct-20 10:26 36.606715 -116.471393 130 25685ft 381kts
02-Oct-20 10:27 36.536962 -116.372612 130 24074ft 377kts
02-Oct-20 10:28 36.467803 -116.274956 131 22470ft 376kts
02-Oct-20 10:29 36.399254 -116.178439 131 20975ft 374kts
02-Oct-20 10:30 36.330293 -116.081627 131 19073ft 372kts
02-Oct-20 10:31 36.263097 -115.987559 131 17060ft 357kts
02-Oct-20 10:32 36.201286 -115.897302 119 16053ft 319kts
02-Oct-20 10:33 36.166825 -115.795853 110 14964ft 326kts
02-Oct-20 10:34 36.133973 -115.693011 111 13664ft 315kts
02-Oct-20 10:35 36.101960 -115.593805 111 12452ft 300kts
02-Oct-20 10:36 36.072480 -115.502719 111 11055ft 275kts
02-Oct-20 10:37 36.043837 -115.414586 111 11002ft 274kts
02-Oct-20 10:38 36.027286 -115.326217 94 10683ft 280kts
02-Oct-20 10:39 36.027846 -115.229113 82 9426ft 269kts
02-Oct-20 10:40 36.036346 -115.140046 82 8222ft 262kts
02-Oct-20 10:41 36.044429 -115.055321 82 7015ft 224kts
02-Oct-20 10:42 36.050534 -114.990276 82 6013ft 166kts
02-Oct-20 10:43 36.081372 -114.987768 303 5991ft 177kts
02-Oct-20 10:44 36.107584 -115.040222 302 5025ft 175kts
02-Oct-20 10:45 36.129878 -115.082396 304 3714ft 123kts
02-Oct-20 10:46 36.140605 -115.118376 270 2945ft 110kts
02-Oct-20 10:47 36.121407 -115.143834 207 2711ft 116kts
02-Oct-20 10:48 36.094742 -115.159275 205 2105ft 86kts
02-Oct-20 10:49 36.083120 -115.165949 205 2105ft 27kts
02-Oct-20 10:50 36.082422 -115.167434 292 2105ft 0kts
02-Oct-20 10:51 36.082422 -115.167434 292 2105ft 0kts
02-Oct-20 10:53 36.082504 -115.167668 296 2105ft 7kts
02-Oct-20 10:54 36.081089 -115.169530 215 2105ft 11kts
02-Oct-20 10:55 36.080644 -115.170595 105 2105ft 0kts
02-Oct-20 10:56 36.080644 -115.170595 105 2105ft 0kts
02-Oct-20 10:57 36.080644 -115.170595 105 2105ft 0kts
02-Oct-20 10:58 36.080644 -115.170595 105 2105ft 0kts
02-Oct-20 10:59 36.080644 -115.170595 105 2105ft 0kts
02-Oct-20 11:00 36.080644 -115.170595 105 2105ft 0kts
02-Oct-20 11:01 36.080644 -115.170595 105 2105ft 0kts
02-Oct-20 11:02 36.080644 -115.170595 105 2105ft 0kts
02-Oct-20 11:03 36.080644 -115.170595 105 2105ft 0kts
02-Oct-20 11:04 36.080644 -115.170595 105 2105ft 0kts

Navigation Log

Ident Type
Flight plan parsing failed, navigation log unavailable